Hauptseite
METAR-TAF:

METAR-TAF

Flughäfen :

Militärflugplatz Nancy-Ochey

Nancy, Frankreich

Breite: 48-35N, Länge: 005-58E, Höhe: 336 m

Beobachtung

Neuester Wetterbericht von vor 19 Minuten, um 06:00 UTC
Wind 2 kt aus West/Nordwest
Temperatur -3°C
Luftfeuchtigkeit 100%
Luftdruck 1009 hPa
Sichtweite: 0600 m
Gefrierender Nebel

METAR: LFSO 170600Z AUTO 29002KT 0700 0600 R20/0650D FZFG VV/// M03/M03 Q1009

Zeit: 07:19 (06:19 UTC)

Prognose

Neuester Wetterbericht von vor 16 Stunden und 19 Minuten, um 14:00 UTC
Gültige Prognose vom 15 um 15 UTC bis 16 um 15 UTC
Wind 10 kt aus Süd
Sichtweite 10 km oder mehr
Durchbrochene Bewölkung in der Höhe von 1700 ft
Übergehend zu
vom 15 um 18 UTC bis 15 um 20 UTC
Sichtweite 10 km oder mehr
keine Wolken unter 1500 m und keine Kumulonimbus oder Gewitterwolken

TAF: LFSO 151400Z 1515/1615 18010KT 9999 BKN017 BECMG 1518/1520 CAVOK

Wetterbeobachtungen und Prognosen von mehr als 4000 Flughäfen (METAR und TAF Bericht).

Die verfügbaren Stationen werden durch gelbe und rote Markierungen auf der Karte dargestellt.

Führen Sie die Maus auf sie, um den Namen der Station zu sehen.

Darauf klicken, um die Beobachtung von Wetterbeobachtungen und Prognosen zu sehen.

Um die Karte zu ändern : klicken Sie auf den grünen Tasten mit einem schwarzen Kreuz Zum Vergrößern, auf den grünen Button mit einem Gedankenstrich zu verkleinern, oder auf die grünen Pfeile für benachbarte Karten.


METAR-TAF: